Time;durP1;ratioP1;P1;durP2;ratioP2;P2;SDS_P1;SDS_P2;PMS_P1;PMS_P2;Temp;Humidity;BMP_temperature;BMP_pressure;BME280_temperature;BME280_humidity;BME280_pressure;Samples;Min_cycle;Max_cycle;Signal;HPM_P1;HPM_P2
2022/11/18 00:00:30;;;;;;;6.33;4.50;;;;;;;;;;4974730;28;20205;-85
2022/11/18 00:02:59;;;;;;;4.23;3.13;;;;;;;;;;4973139;28;20205;-85
2022/11/18 00:05:28;;;;;;;3.70;3.40;;;;;;;;;;4973625;28;20208;-85
2022/11/18 00:07:57;;;;;;;4.00;3.37;;;;;;;;;;4975011;28;20189;-85
2022/11/18 00:10:25;;;;;;;5.33;4.57;;;;;;;;;;4973706;28;20362;-85
2022/11/18 00:15:40;;;;;;;4.70;4.23;;;;;;;;;;4973005;28;20214;-85
2022/11/18 00:18:08;;;;;;;5.77;4.23;;;;;;;;;;4973531;28;20272;-85
2022/11/18 00:20:38;;;;;;;5.10;4.70;;;;;;;;;;4973250;28;20213;-85
2022/11/18 00:23:06;;;;;;;5.63;4.30;;;;;;;;;;4973583;28;20295;-85
2022/11/18 00:25:35;;;;;;;5.30;4.80;;;;;;;;;;4973216;28;20201;-85
2022/11/18 00:28:03;;;;;;;5.73;5.13;;;;;;;;;;4974431;28;20292;-85
2022/11/18 00:30:31;;;;;;;4.60;4.07;;;;;;;;;;4972705;28;20225;-85
2022/11/18 00:33:00;;;;;;;4.30;3.57;;;;;;;;;;4973070;28;20264;-85
2022/11/18 00:35:28;;;;;;;5.50;4.87;;;;;;;;;;4974148;28;20200;-85
2022/11/18 00:37:58;;;;;;;3.40;2.97;;;;;;;;;;4973290;28;20236;-85
2022/11/18 00:40:26;;;;;;;7.47;5.10;;;;;;;;;;4973264;28;20211;-85
2022/11/18 00:42:55;;;;;;;5.43;4.17;;;;;;;;;;4974122;28;20217;-85
2022/11/18 00:45:24;;;;;;;4.43;3.23;;;;;;;;;;4972770;28;20206;-85
2022/11/18 00:47:52;;;;;;;6.17;5.67;;;;;;;;;;4973184;28;20221;-84
2022/11/18 00:50:20;;;;;;;5.03;4.53;;;;;;;;;;4973946;28;20212;-84
2022/11/18 00:52:49;;;;;;;8.57;5.07;;;;;;;;;;4972856;28;20267;-84
2022/11/18 00:55:18;;;;;;;6.00;4.77;;;;;;;;;;4973242;28;20257;-84
2022/11/18 00:57:47;;;;;;;7.47;5.87;;;;;;;;;;4972992;28;20215;-84
2022/11/18 01:00:15;;;;;;;6.03;5.43;;;;;;;;;;4957920;28;20206;-84
2022/11/18 01:02:43;;;;;;;7.77;6.20;;;;;;;;;;4968867;28;20205;-84
2022/11/18 01:05:12;;;;;;;10.67;6.43;;;;;;;;;;4972758;28;20228;-84
2022/11/18 01:07:40;;;;;;;8.90;5.83;;;;;;;;;;4973845;28;20201;-84
2022/11/18 01:10:09;;;;;;;7.97;5.67;;;;;;;;;;4974251;28;20201;-84
2022/11/18 01:15:25;;;;;;;5.60;5.07;;;;;;;;;;4973908;28;20201;-84
2022/11/18 01:17:53;;;;;;;5.30;4.60;;;;;;;;;;4976189;28;20202;-84
2022/11/18 01:20:21;;;;;;;7.30;5.70;;;;;;;;;;4976625;28;20213;-84
2022/11/18 01:22:50;;;;;;;7.27;6.50;;;;;;;;;;4975233;28;20205;-84
2022/11/18 01:25:18;;;;;;;7.07;6.23;;;;;;;;;;4976629;28;20201;-84
2022/11/18 01:27:48;;;;;;;6.10;5.50;;;;;;;;;;4964054;28;20236;-85
2022/11/18 01:30:16;;;;;;;6.93;6.27;;;;;;;;;;4975919;28;20291;-84
2022/11/18 01:32:45;;;;;;;7.70;6.97;;;;;;;;;;4976169;28;20205;-84
2022/11/18 01:35:13;;;;;;;6.10;5.40;;;;;;;;;;4976007;28;20288;-84
2022/11/18 01:37:42;;;;;;;6.73;5.60;;;;;;;;;;4976165;28;20224;-84
2022/11/18 01:40:11;;;;;;;7.53;5.87;;;;;;;;;;4977169;28;20307;-84
2022/11/18 01:42:39;;;;;;;7.50;6.77;;;;;;;;;;4976013;28;20197;-85
2022/11/18 01:45:23;;;;;;;4.73;4.27;;;;;;;;;;4975736;28;20200;-84
2022/11/18 01:47:55;;;;;;;8.93;7.33;;;;;;;;;;4973640;28;20209;-84
2022/11/18 01:50:25;;;;;;;9.27;7.20;;;;;;;;;;4976143;28;20201;-84
2022/11/18 01:52:55;;;;;;;8.53;7.07;;;;;;;;;;4975882;28;20268;-84
2022/11/18 01:55:25;;;;;;;6.10;5.50;;;;;;;;;;4964369;28;20260;-85
2022/11/18 01:57:57;;;;;;;10.90;7.97;;;;;;;;;;4975513;28;20228;-85
2022/11/18 02:00:26;;;;;;;7.43;6.83;;;;;;;;;;4975657;28;20255;-85
2022/11/18 02:02:56;;;;;;;9.00;7.33;;;;;;;;;;4975779;28;20206;-85
2022/11/18 02:05:24;;;;;;;7.83;7.13;;;;;;;;;;4975589;28;20216;-85
2022/11/18 02:07:53;;;;;;;9.40;7.73;;;;;;;;;;4975511;28;20202;-85
2022/11/18 02:10:23;;;;;;;8.27;7.50;;;;;;;;;;4975803;28;20204;-85
2022/11/18 02:12:55;;;;;;;7.40;6.30;;;;;;;;;;4972128;28;20252;-85
2022/11/18 02:15:27;;;;;;;5.93;5.33;;;;;;;;;;4967603;28;20209;-85
2022/11/18 02:17:59;;;;;;;9.83;8.50;;;;;;;;;;4975788;28;20252;-85
2022/11/18 02:20:30;;;;;;;7.97;7.20;;;;;;;;;;4976156;28;20217;-85
2022/11/18 02:23:09;;;;;;;20.53;7.27;;;;;;;;;;4976076;28;20205;-85
2022/11/18 02:25:45;;;;;;;9.90;8.43;;;;;;;;;;4975111;28;20267;-85
2022/11/18 02:28:32;;;;;;;8.63;7.33;;;;;;;;;;4976388;28;20255;-85
2022/11/18 02:31:05;;;;;;;12.50;8.17;;;;;;;;;;4976488;28;20244;-86
2022/11/18 02:33:37;;;;;;;6.83;6.10;;;;;;;;;;4976028;28;20209;-85
2022/11/18 02:36:08;;;;;;;6.17;5.47;;;;;;;;;;4975514;28;20205;-85
2022/11/18 02:38:41;;;;;;;7.87;7.10;;;;;;;;;;4975111;28;20197;-85
2022/11/18 02:41:11;;;;;;;10.63;9.10;;;;;;;;;;4991143;28;20255;-85
2022/11/18 02:43:41;;;;;;;6.13;5.50;;;;;;;;;;4971805;28;20257;-85
2022/11/18 02:46:14;;;;;;;12.30;9.40;;;;;;;;;;4967302;28;20237;-86
2022/11/18 02:48:45;;;;;;;9.30;7.87;;;;;;;;;;4975003;28;20200;-85
2022/11/18 02:51:16;;;;;;;10.77;9.37;;;;;;;;;;4974839;28;20236;-85
2022/11/18 02:53:46;;;;;;;8.73;7.37;;;;;;;;;;4974556;28;20204;-85
2022/11/18 02:56:16;;;;;;;7.27;6.53;;;;;;;;;;4975875;28;20285;-85
2022/11/18 02:58:44;;;;;;;11.63;10.43;;;;;;;;;;4974873;28;20193;-86
2022/11/18 03:01:18;;;;;;;14.30;11.07;;;;;;;;;;4973860;28;20217;-86
2022/11/18 03:03:47;;;;;;;14.37;10.63;;;;;;;;;;4975816;28;20223;-85
2022/11/18 03:06:25;;;;;;;12.57;11.10;;;;;;;;;;4974442;28;20211;-86
2022/11/18 03:08:59;;;;;;;11.30;10.03;;;;;;;;;;4974595;28;20204;-85
2022/11/18 03:11:29;;;;;;;12.17;9.57;;;;;;;;;;4974414;28;20214;-85
2022/11/18 03:14:05;;;;;;;9.40;7.03;;;;;;;;;;4974517;28;20220;-85
2022/11/18 03:16:39;;;;;;;14.87;13.33;;;;;;;;;;4974247;28;20223;-85
2022/11/18 03:19:10;;;;;;;7.63;6.93;;;;;;;;;;4974199;28;20275;-86
2022/11/18 03:21:41;;;;;;;11.00;9.87;;;;;;;;;;4974447;28;20200;-86
2022/11/18 03:24:13;;;;;;;13.57;10.90;;;;;;;;;;4975227;28;20247;-86
2022/11/18 03:26:45;;;;;;;10.30;9.13;;;;;;;;;;4974031;28;20201;-86
2022/11/18 03:29:16;;;;;;;10.50;8.93;;;;;;;;;;4973187;28;20209;-86
2022/11/18 03:31:48;;;;;;;10.57;8.73;;;;;;;;;;4974005;28;20236;-86
2022/11/18 03:34:20;;;;;;;11.27;10.17;;;;;;;;;;4962845;28;20201;-85
2022/11/18 03:36:50;;;;;;;13.17;11.77;;;;;;;;;;4973748;28;20208;-86
2022/11/18 03:39:20;;;;;;;11.53;10.17;;;;;;;;;;4973381;28;20243;-85
2022/11/18 03:41:52;;;;;;;13.23;11.40;;;;;;;;;;4973607;28;20201;-86
2022/11/18 03:44:24;;;;;;;12.20;10.73;;;;;;;;;;4973818;28;20205;-86
2022/11/18 03:46:56;;;;;;;12.53;11.13;;;;;;;;;;4973606;28;20260;-86
2022/11/18 03:49:27;;;;;;;17.10;12.73;;;;;;;;;;4975064;28;20197;-86
2022/11/18 03:51:57;;;;;;;12.40;9.50;;;;;;;;;;4973198;28;20201;-86
2022/11/18 03:54:28;;;;;;;14.30;12.73;;;;;;;;;;4974412;28;20260;-86
2022/11/18 03:56:58;;;;;;;12.97;9.10;;;;;;;;;;4965342;28;20268;-86
2022/11/18 03:59:29;;;;;;;15.90;11.93;;;;;;;;;;4973564;28;20217;-86
2022/11/18 04:02:04;;;;;;;9.07;5.83;;;;;;;;;;4974327;28;20202;-86
2022/11/18 04:04:33;;;;;;;14.90;13.30;;;;;;;;;;4970088;28;20231;-86
2022/11/18 04:07:04;;;;;;;8.97;6.57;;;;;;;;;;4973390;28;20255;-86
2022/11/18 04:09:35;;;;;;;13.87;9.33;;;;;;;;;;4974820;28;20225;-86
2022/11/18 04:12:06;;;;;;;12.10;9.00;;;;;;;;;;4974276;28;20202;-86
2022/11/18 04:14:35;;;;;;;15.10;12.50;;;;;;;;;;4974621;28;20221;-86
2022/11/18 04:17:08;;;;;;;13.97;10.10;;;;;;;;;;4972954;28;20233;-86
2022/11/18 04:19:37;;;;;;;14.20;11.13;;;;;;;;;;4973683;28;20225;-86
2022/11/18 04:22:06;;;;;;;14.60;10.80;;;;;;;;;;4973007;28;20228;-86
2022/11/18 04:24:34;;;;;;;11.53;7.97;;;;;;;;;;4971971;28;20264;-86
2022/11/18 04:27:02;;;;;;;8.20;6.20;;;;;;;;;;4973520;28;20214;-86
2022/11/18 04:29:31;;;;;;;11.43;8.87;;;;;;;;;;4960785;28;20268;-84
2022/11/18 04:31:59;;;;;;;11.93;8.43;;;;;;;;;;4973088;28;20228;-83
2022/11/18 04:34:29;;;;;;;19.27;12.77;;;;;;;;;;4970119;28;20209;-83
2022/11/18 04:36:58;;;;;;;14.50;10.57;;;;;;;;;;4968287;28;20205;-84
2022/11/18 04:39:26;;;;;;;7.40;5.70;;;;;;;;;;4974369;28;20289;-84
2022/11/18 04:41:57;;;;;;;6.77;4.17;;;;;;;;;;4974120;28;20205;-83
2022/11/18 04:44:27;;;;;;;8.10;7.00;;;;;;;;;;4973304;28;20264;-85
2022/11/18 04:46:55;;;;;;;3.63;3.33;;;;;;;;;;4972953;28;20193;-84
2022/11/18 04:49:24;;;;;;;5.23;4.57;;;;;;;;;;4974377;28;20202;-85
2022/11/18 04:51:54;;;;;;;1.07;1.03;;;;;;;;;;4976832;28;20224;-85
2022/11/18 04:54:23;;;;;;;2.03;1.93;;;;;;;;;;4977169;28;20231;-84
2022/11/18 04:56:51;;;;;;;0.70;0.70;;;;;;;;;;4976572;28;20235;-84
2022/11/18 04:59:21;;;;;;;8.17;5.70;;;;;;;;;;4966316;28;20266;-84
2022/11/18 05:01:50;;;;;;;0.50;0.50;;;;;;;;;;4975693;28;20214;-84
2022/11/18 05:04:19;;;;;;;4.90;4.23;;;;;;;;;;4977694;28;20225;-84
2022/11/18 05:06:47;;;;;;;3.03;2.83;;;;;;;;;;4976551;28;20204;-84
2022/11/18 05:09:17;;;;;;;15.17;11.47;;;;;;;;;;4976697;28;20204;-85
2022/11/18 05:14:32;;;;;;;10.37;8.30;;;;;;;;;;4976771;28;20215;-84
2022/11/18 05:17:02;;;;;;;7.10;5.77;;;;;;;;;;4977623;28;20229;-85
2022/11/18 05:19:30;;;;;;;14.83;7.83;;;;;;;;;;4977342;28;20209;-85
2022/11/18 05:21:59;;;;;;;6.63;5.97;;;;;;;;;;4977332;28;20230;-85
2022/11/18 05:24:28;;;;;;;14.50;10.83;;;;;;;;;;4976531;28;20200;-85
2022/11/18 05:26:57;;;;;;;13.90;10.50;;;;;;;;;;4976613;28;20205;-85
2022/11/18 05:29:25;;;;;;;13.03;11.57;;;;;;;;;;4976015;28;20207;-85
2022/11/18 05:31:53;;;;;;;12.20;10.73;;;;;;;;;;4976117;28;20203;-85
2022/11/18 05:34:22;;;;;;;15.27;13.20;;;;;;;;;;4975909;28;20205;-85
2022/11/18 05:36:50;;;;;;;13.83;9.10;;;;;;;;;;4976372;28;20240;-85
2022/11/18 05:39:19;;;;;;;13.80;11.83;;;;;;;;;;4976476;28;20264;-85
2022/11/18 05:44:35;;;;;;;12.47;11.17;;;;;;;;;;4976057;28;20232;-85
2022/11/18 05:47:03;;;;;;;14.77;10.57;;;;;;;;;;4975945;28;20205;-85
2022/11/18 05:49:32;;;;;;;12.33;8.63;;;;;;;;;;4977258;28;20205;-85
2022/11/18 05:52:00;;;;;;;14.43;10.63;;;;;;;;;;4976807;28;20202;-85
2022/11/18 05:54:29;;;;;;;12.83;11.30;;;;;;;;;;4976067;28;20210;-85
2022/11/18 05:56:58;;;;;;;16.63;11.87;;;;;;;;;;4975784;28;20205;-85
2022/11/18 05:59:27;;;;;;;14.37;11.50;;;;;;;;;;4976761;28;20206;-85
2022/11/18 06:01:57;;;;;;;15.23;10.60;;;;;;;;;;4974710;28;20209;-85
2022/11/18 06:04:28;;;;;;;11.80;9.23;;;;;;;;;;4975359;28;20225;-85
2022/11/18 06:06:59;;;;;;;13.60;9.83;;;;;;;;;;4963525;28;20256;-86
2022/11/18 06:09:29;;;;;;;11.67;10.40;;;;;;;;;;4975565;28;20201;-83
2022/11/18 06:12:00;;;;;;;16.37;12.13;;;;;;;;;;4975998;28;20201;-83
2022/11/18 06:14:31;;;;;;;9.90;7.33;;;;;;;;;;4976616;28;20301;-85
2022/11/18 06:17:01;;;;;;;7.13;6.43;;;;;;;;;;4976687;28;20248;-86
2022/11/18 06:19:30;;;;;;;14.63;12.97;;;;;;;;;;4975213;28;20233;-85
2022/11/18 06:21:59;;;;;;;12.93;11.53;;;;;;;;;;4975150;28;20309;-86
2022/11/18 06:24:27;;;;;;;16.83;11.23;;;;;;;;;;4975057;28;20198;-85
2022/11/18 06:26:55;;;;;;;9.43;7.17;;;;;;;;;;4975048;28;20232;-86
2022/11/18 06:29:25;;;;;;;12.00;9.57;;;;;;;;;;4975156;28;20264;-85
2022/11/18 06:31:55;;;;;;;18.03;12.53;;;;;;;;;;4975348;28;20226;-85
2022/11/18 06:34:24;;;;;;;14.77;11.07;;;;;;;;;;4975669;28;20197;-86
2022/11/18 06:36:52;;;;;;;12.57;11.27;;;;;;;;;;4975243;28;20227;-85
2022/11/18 06:39:21;;;;;;;13.60;10.87;;;;;;;;;;4962716;28;20201;-86
2022/11/18 06:41:49;;;;;;;16.47;6.87;;;;;;;;;;4976037;28;20264;-84
2022/11/18 06:44:16;;;;;;;11.07;8.80;;;;;;;;;;4974987;28;20213;-85
2022/11/18 06:46:55;;;;;;;9.67;8.67;;;;;;;;;;4976276;28;20202;-85
2022/11/18 06:49:24;;;;;;;9.93;7.73;;;;;;;;;;4976010;28;20316;-85
2022/11/18 06:51:52;;;;;;;10.83;9.77;;;;;;;;;;4975005;28;20199;-85
2022/11/18 06:54:21;;;;;;;14.20;12.00;;;;;;;;;;4975002;28;20372;-86
2022/11/18 06:56:49;;;;;;;8.47;6.67;;;;;;;;;;4975560;28;20207;-86
2022/11/18 06:59:22;;;;;;;10.17;8.20;;;;;;;;;;4974791;28;20234;-86
2022/11/18 07:01:53;;;;;;;14.03;10.57;;;;;;;;;;4974323;28;20273;-86
2022/11/18 07:04:21;;;;;;;14.23;8.63;;;;;;;;;;4975626;28;20283;-86
2022/11/18 07:06:49;;;;;;;14.80;10.10;;;;;;;;;;4974407;28;20210;-87
2022/11/18 07:09:18;;;;;;;12.30;8.73;;;;;;;;;;4974562;28;20194;-86
2022/11/18 07:11:47;;;;;;;10.43;8.17;;;;;;;;;;4959289;28;20282;-86
2022/11/18 07:14:15;;;;;;;11.90;8.17;;;;;;;;;;4984232;28;20206;-86
2022/11/18 07:16:44;;;;;;;9.53;7.97;;;;;;;;;;4971427;28;20222;-86
2022/11/18 07:19:14;;;;;;;7.37;6.30;;;;;;;;;;4969849;28;20203;-86
2022/11/18 07:21:42;;;;;;;12.47;9.70;;;;;;;;;;4974640;28;20216;-86
2022/11/18 07:24:12;;;;;;;9.83;6.70;;;;;;;;;;4974396;28;20209;-86
2022/11/18 07:26:41;;;;;;;13.67;10.40;;;;;;;;;;4974623;28;20202;-86
2022/11/18 07:29:10;;;;;;;12.20;7.97;;;;;;;;;;4975085;28;20210;-87
2022/11/18 07:31:38;;;;;;;11.70;10.60;;;;;;;;;;4974177;28;20238;-86
2022/11/18 07:34:07;;;;;;;11.53;9.53;;;;;;;;;;4975406;28;20206;-87
2022/11/18 07:36:37;;;;;;;8.13;3.93;;;;;;;;;;4974262;28;20252;-86
2022/11/18 07:39:06;;;;;;;12.47;10.03;;;;;;;;;;4974285;28;20236;-85
2022/11/18 07:41:35;;;;;;;12.00;9.00;;;;;;;;;;4974432;28;20355;-86
2022/11/18 07:44:05;;;;;;;12.97;9.90;;;;;;;;;;4973709;28;20304;-86
2022/11/18 07:46:34;;;;;;;12.70;10.20;;;;;;;;;;4974358;28;20206;-86
2022/11/18 07:49:04;;;;;;;17.63;11.97;;;;;;;;;;4974369;28;20279;-86
2022/11/18 07:51:34;;;;;;;13.33;10.27;;;;;;;;;;4974234;28;20197;-86
2022/11/18 07:54:06;;;;;;;13.53;9.10;;;;;;;;;;4974396;28;20210;-85
2022/11/18 07:56:34;;;;;;;12.70;10.77;;;;;;;;;;4974094;28;20211;-86
2022/11/18 07:59:03;;;;;;;11.03;9.70;;;;;;;;;;4974163;28;20206;-85
2022/11/18 08:01:32;;;;;;;8.90;7.97;;;;;;;;;;4973633;28;20223;-86
2022/11/18 08:04:05;;;;;;;14.80;10.87;;;;;;;;;;4973658;28;20226;-86
2022/11/18 08:06:34;;;;;;;12.13;8.83;;;;;;;;;;4974652;28;20198;-86
2022/11/18 08:09:04;;;;;;;8.03;6.90;;;;;;;;;;4974080;28;20205;-86
2022/11/18 08:11:33;;;;;;;13.30;10.87;;;;;;;;;;4974741;28;20203;-87
2022/11/18 08:14:01;;;;;;;8.37;7.47;;;;;;;;;;4973332;28;20206;-86
2022/11/18 08:16:30;;;;;;;10.27;7.63;;;;;;;;;;4973122;28;20210;-86
2022/11/18 08:19:00;;;;;;;17.20;12.53;;;;;;;;;;4976528;28;20253;-86
2022/11/18 08:21:28;;;;;;;17.57;10.97;;;;;;;;;;4961308;28;20209;-85
2022/11/18 08:23:57;;;;;;;16.17;11.53;;;;;;;;;;4960322;28;20276;-86
2022/11/18 08:26:28;;;;;;;14.60;10.87;;;;;;;;;;4973820;28;20230;-86
2022/11/18 08:28:57;;;;;;;15.00;11.10;;;;;;;;;;4973294;28;20299;-87
2022/11/18 08:31:27;;;;;;;11.00;8.93;;;;;;;;;;4973077;28;20323;-86
2022/11/18 08:33:56;;;;;;;13.77;11.20;;;;;;;;;;4973379;28;20220;-87
2022/11/18 08:36:26;;;;;;;12.20;9.77;;;;;;;;;;4973696;28;20216;-86
2022/11/18 08:38:55;;;;;;;9.47;7.30;;;;;;;;;;4973200;28;20209;-86
2022/11/18 08:41:29;;;;;;;8.30;7.00;;;;;;;;;;4973594;28;20319;-84
2022/11/18 08:43:57;;;;;;;13.47;10.87;;;;;;;;;;4973106;28;20225;-86
2022/11/18 08:46:26;;;;;;;13.43;8.87;;;;;;;;;;4973375;28;20196;-86
2022/11/18 08:48:54;;;;;;;9.57;8.67;;;;;;;;;;4972591;28;20193;-87
2022/11/18 08:51:22;;;;;;;13.03;8.53;;;;;;;;;;4973200;28;20260;-86
2022/11/18 08:53:51;;;;;;;11.10;8.50;;;;;;;;;;4973400;28;20288;-86
2022/11/18 08:56:21;;;;;;;10.63;7.80;;;;;;;;;;4972821;28;20209;-87
2022/11/18 08:58:51;;;;;;;16.97;9.27;;;;;;;;;;4972953;28;20198;-86
2022/11/18 09:01:19;;;;;;;10.47;9.30;;;;;;;;;;4973672;28;20206;-86
2022/11/18 09:03:48;;;;;;;7.93;7.17;;;;;;;;;;4962155;28;20229;-86
2022/11/18 09:06:17;;;;;;;12.43;8.47;;;;;;;;;;4961347;28;20194;-86
2022/11/18 09:08:46;;;;;;;14.10;9.43;;;;;;;;;;4974626;28;20240;-86
2022/11/18 09:11:16;;;;;;;5.80;5.17;;;;;;;;;;4972656;28;20207;-86
2022/11/18 09:13:44;;;;;;;8.20;5.77;;;;;;;;;;4974396;28;20269;-87
2022/11/18 09:16:35;;;;;;;12.10;8.33;;;;;;;;;;4973002;28;20280;-86
2022/11/18 09:19:04;;;;;;;8.70;7.53;;;;;;;;;;4972315;28;20209;-86
2022/11/18 09:21:52;;;;;;;14.03;8.47;;;;;;;;;;4979814;28;20306;-87
2022/11/18 09:24:21;;;;;;;11.00;8.57;;;;;;;;;;4973278;28;20263;-87
2022/11/18 09:26:50;;;;;;;9.60;5.80;;;;;;;;;;4972959;28;20212;-84
2022/11/18 09:29:18;;;;;;;7.30;5.50;;;;;;;;;;4973283;28;20250;-85
2022/11/18 09:31:48;;;;;;;8.00;7.20;;;;;;;;;;4974182;28;20241;-85
2022/11/18 09:34:17;;;;;;;10.93;7.77;;;;;;;;;;4973838;28;20213;-85
2022/11/18 09:36:46;;;;;;;11.33;8.90;;;;;;;;;;4975166;28;20296;-85
2022/11/18 09:39:16;;;;;;;11.10;7.20;;;;;;;;;;4960791;28;20209;-85
2022/11/18 09:41:46;;;;;;;11.57;6.23;;;;;;;;;;4972255;28;20233;-85
2022/11/18 09:44:22;;;;;;;7.43;4.90;;;;;;;;;;4976528;28;20221;-85
2022/11/18 09:46:56;;;;;;;8.67;6.50;;;;;;;;;;4977383;28;20203;-85
2022/11/18 09:49:28;;;;;;;10.87;6.33;;;;;;;;;;4976401;28;20213;-85
2022/11/18 09:51:58;;;;;;;11.97;6.63;;;;;;;;;;4976468;28;20310;-85
2022/11/18 09:54:27;;;;;;;5.03;3.90;;;;;;;;;;4973359;28;20254;-85
2022/11/18 09:56:56;;;;;;;6.73;4.73;;;;;;;;;;4976622;28;20278;-85
2022/11/18 09:59:26;;;;;;;9.33;6.20;;;;;;;;;;4976065;28;20213;-85
2022/11/18 10:01:58;;;;;;;6.97;6.23;;;;;;;;;;4976219;28;20217;-86
2022/11/18 10:04:29;;;;;;;9.13;7.00;;;;;;;;;;4975963;28;20249;-86
2022/11/18 10:06:58;;;;;;;8.00;4.67;;;;;;;;;;4964276;28;20238;-86
2022/11/18 10:09:28;;;;;;;8.53;6.87;;;;;;;;;;4975742;28;20225;-86
2022/11/18 10:12:03;;;;;;;4.93;4.43;;;;;;;;;;4976273;28;20202;-86
2022/11/18 10:14:37;;;;;;;7.47;6.07;;;;;;;;;;4976974;28;20202;-86
2022/11/18 10:17:11;;;;;;;7.10;6.40;;;;;;;;;;4976270;28;20203;-86
2022/11/18 10:19:42;;;;;;;10.43;6.57;;;;;;;;;;4976784;28;20214;-86
2022/11/18 10:22:20;;;;;;;11.73;6.80;;;;;;;;;;4977088;28;20289;-86
2022/11/18 10:24:52;;;;;;;8.93;6.77;;;;;;;;;;4961689;28;20306;-86
2022/11/18 10:27:21;;;;;;;8.80;5.97;;;;;;;;;;4972778;28;20205;-86
2022/11/18 10:29:53;;;;;;;8.23;6.40;;;;;;;;;;4972572;28;20221;-86
2022/11/18 10:32:23;;;;;;;10.87;6.70;;;;;;;;;;4972609;28;20198;-86
2022/11/18 10:34:52;;;;;;;8.40;6.27;;;;;;;;;;4975987;28;20210;-86
2022/11/18 10:37:26;;;;;;;5.83;3.80;;;;;;;;;;4975727;28;20206;-86
2022/11/18 10:40:24;;;;;;;7.90;6.37;;;;;;;;;;4976144;28;20210;-86
2022/11/18 10:42:53;;;;;;;10.03;6.40;;;;;;;;;;4976472;28;20206;-86
2022/11/18 10:45:25;;;;;;;6.90;6.00;;;;;;;;;;4975792;28;20265;-86
2022/11/18 10:48:00;;;;;;;1.70;1.60;;;;;;;;;;4976891;28;20339;-86
2022/11/18 10:50:30;;;;;;;5.97;3.77;;;;;;;;;;4975607;28;20231;-87
2022/11/18 10:52:59;;;;;;;3.87;3.50;;;;;;;;;;4976123;28;20221;-86
2022/11/18 10:55:28;;;;;;;3.33;2.63;;;;;;;;;;4975233;28;20197;-86
2022/11/18 10:57:58;;;;;;;6.47;4.60;;;;;;;;;;4974918;28;20219;-86
2022/11/18 11:00:34;;;;;;;2.57;2.37;;;;;;;;;;4963563;28;20235;-86
2022/11/18 11:03:16;;;;;;;4.83;4.33;;;;;;;;;;4973909;28;20214;-86
2022/11/18 11:05:44;;;;;;;6.97;5.17;;;;;;;;;;4976282;28;20214;-86
2022/11/18 11:08:20;;;;;;;6.73;5.30;;;;;;;;;;4974969;28;20218;-86
2022/11/18 11:11:04;;;;;;;7.00;6.37;;;;;;;;;;4975125;28;20260;-87
2022/11/18 11:13:33;;;;;;;7.40;5.13;;;;;;;;;;4975199;28;20250;-86
2022/11/18 11:16:03;;;;;;;4.97;4.40;;;;;;;;;;4974644;28;20214;-86
2022/11/18 11:18:43;;;;;;;8.50;6.10;;;;;;;;;;4976372;28;20265;-86
2022/11/18 11:21:12;;;;;;;7.43;5.70;;;;;;;;;;4974701;28;20238;-86
2022/11/18 11:23:41;;;;;;;7.23;6.03;;;;;;;;;;4976072;28;20214;-86
2022/11/18 11:26:14;;;;;;;10.37;6.33;;;;;;;;;;4974874;28;20206;-86
2022/11/18 11:29:06;;;;;;;10.63;6.30;;;;;;;;;;4975185;28;20295;-85
2022/11/18 11:31:39;;;;;;;9.60;7.57;;;;;;;;;;4974819;28;20241;-85
2022/11/18 11:34:12;;;;;;;10.43;6.20;;;;;;;;;;4974767;28;20234;-85
2022/11/18 11:36:44;;;;;;;7.83;4.23;;;;;;;;;;4972135;28;20212;-85
2022/11/18 11:39:25;;;;;;;13.87;7.67;;;;;;;;;;4968366;28;20220;-87
2022/11/18 11:42:02;;;;;;;11.37;8.03;;;;;;;;;;4973957;28;20195;-88
2022/11/18 11:44:36;;;;;;;13.37;6.73;;;;;;;;;;4967728;28;20225;-88
2022/11/18 11:50:02;;;;;;;11.27;7.47;;;;;;;;;;4967499;28;20211;-89
2022/11/18 11:52:35;;;;;;;8.90;4.60;;;;;;;;;;4972548;28;20207;-88
2022/11/18 11:55:11;;;;;;;6.47;5.70;;;;;;;;;;4966691;28;20203;-89
2022/11/18 11:57:44;;;;;;;13.53;9.03;;;;;;;;;;4966964;28;20206;-88
2022/11/18 12:00:14;;;;;;;5.33;4.87;;;;;;;;;;4979355;28;20210;-89
2022/11/18 12:03:06;;;;;;;8.90;7.70;;;;;;;;;;4963591;28;20210;-89
2022/11/18 12:05:38;;;;;;;11.83;7.93;;;;;;;;;;4961181;28;20286;-88
2022/11/18 12:08:10;;;;;;;7.87;6.97;;;;;;;;;;4960149;28;20217;-89
2022/11/18 12:10:53;;;;;;;12.77;10.63;;;;;;;;;;4973257;28;20203;-88
2022/11/18 12:13:28;;;;;;;9.73;8.47;;;;;;;;;;4960175;28;20211;-88
2022/11/18 12:16:09;;;;;;;11.57;8.43;;;;;;;;;;4968944;28;20214;-88
2022/11/18 12:18:42;;;;;;;13.63;12.33;;;;;;;;;;4963045;28;20248;-88
2022/11/18 12:21:32;;;;;;;13.73;11.23;;;;;;;;;;4972673;28;20204;-88
2022/11/18 12:24:17;;;;;;;8.70;7.93;;;;;;;;;;4967097;28;20230;-88
2022/11/18 12:26:47;;;;;;;13.80;10.80;;;;;;;;;;4965876;28;20199;-89
2022/11/18 12:29:24;;;;;;;14.10;11.33;;;;;;;;;;4970721;28;20234;-88
2022/11/18 12:31:56;;;;;;;14.53;11.47;;;;;;;;;;4965920;28;20297;-88
2022/11/18 12:34:39;;;;;;;5.50;5.10;;;;;;;;;;4960701;28;20547;-89
2022/11/18 12:37:26;;;;;;;5.67;5.17;;;;;;;;;;4961157;28;20300;-90
2022/11/18 12:39:58;;;;;;;11.77;7.03;;;;;;;;;;4963556;28;20207;-90
2022/11/18 12:45:58;;;;;;;12.13;9.63;;;;;;;;;;4965317;28;20233;-88
2022/11/18 12:48:28;;;;;;;2.63;2.30;;;;;;;;;;4965300;28;20230;-90
2022/11/18 12:50:57;;;;;;;2.93;2.63;;;;;;;;;;4965886;28;20211;-89
2022/11/18 12:53:34;;;;;;;8.77;7.77;;;;;;;;;;4961520;28;20206;-89
2022/11/18 12:56:20;;;;;;;9.67;8.67;;;;;;;;;;4962045;28;20307;-89
2022/11/18 12:58:51;;;;;;;12.10;8.47;;;;;;;;;;4967274;28;20212;-90
2022/11/18 13:01:24;;;;;;;14.53;13.03;;;;;;;;;;4965710;28;20215;-89
2022/11/18 13:03:53;;;;;;;14.23;9.33;;;;;;;;;;4967263;28;20293;-88
2022/11/18 13:06:24;;;;;;;2.67;2.43;;;;;;;;;;4963348;28;20236;-88
2022/11/18 13:08:55;;;;;;;15.37;10.97;;;;;;;;;;4962140;28;20206;-86
2022/11/18 13:20:19;;;;;;;4.63;3.90;;;;;;;;;;4979348;28;20802;-86
2022/11/18 13:25:36;;;;;;;9.63;5.87;;;;;;;;;;4964521;28;20221;-87
2022/11/18 13:28:10;;;;;;;4.80;3.83;;;;;;;;;;4970099;28;20276;-89
2022/11/18 13:30:45;;;;;;;7.50;5.63;;;;;;;;;;4964444;28;21203;-89
2022/11/18 13:33:14;;;;;;;1.10;1.10;;;;;;;;;;4977082;28;20207;-90
2022/11/18 13:35:45;;;;;;;8.17;7.13;;;;;;;;;;4981400;28;20212;-90
2022/11/18 13:38:23;;;;;;;8.70;5.93;;;;;;;;;;4967811;28;20205;-90
2022/11/18 13:41:11;;;;;;;14.07;9.67;;;;;;;;;;4966217;28;20214;-90
2022/11/18 13:43:40;;;;;;;11.03;7.90;;;;;;;;;;4966574;28;20211;-92
2022/11/18 13:46:14;;;;;;;7.60;6.43;;;;;;;;;;4963595;28;20219;-90
2022/11/18 13:48:47;;;;;;;4.20;3.87;;;;;;;;;;4966914;28;20232;-91
2022/11/18 13:51:16;;;;;;;2.40;2.20;;;;;;;;;;4963209;28;20238;-90
2022/11/18 13:53:45;;;;;;;8.90;8.50;;;;;;;;;;4963601;28;20222;-90
2022/11/18 13:56:17;;;;;;;0.90;0.90;;;;;;;;;;4963247;28;20200;-89
2022/11/18 13:58:55;;;;;;;4.33;3.23;;;;;;;;;;4965798;28;20209;-91
2022/11/18 14:01:45;;;;;;;5.07;4.60;;;;;;;;;;4965918;28;20208;-91
2022/11/18 14:04:18;;;;;;;8.73;6.40;;;;;;;;;;4981025;28;20228;-90
2022/11/18 14:06:47;;;;;;;6.03;4.50;;;;;;;;;;4966480;28;20204;-91
2022/11/18 14:09:23;;;;;;;4.70;4.03;;;;;;;;;;4965915;28;20221;-88
2022/11/18 14:12:00;;;;;;;10.73;8.10;;;;;;;;;;4977426;28;20204;-91
2022/11/18 14:14:32;;;;;;;8.47;4.63;;;;;;;;;;4969747;28;20219;-91
2022/11/18 14:17:15;;;;;;;4.97;4.47;;;;;;;;;;4987569;28;20345;-93
2022/11/18 14:19:44;;;;;;;5.07;3.77;;;;;;;;;;4977705;28;20271;-91
2022/11/18 14:22:20;;;;;;;9.87;7.87;;;;;;;;;;4981664;28;20211;-89
2022/11/18 14:24:55;;;;;;;2.80;2.53;;;;;;;;;;4981079;28;20213;-91
2022/11/18 14:27:38;;;;;;;8.33;6.13;;;;;;;;;;4985624;28;20228;-85
2022/11/18 14:30:27;;;;;;;4.70;4.30;;;;;;;;;;4973266;28;20220;-90
2022/11/18 14:33:20;;;;;;;8.77;4.37;;;;;;;;;;4995156;28;20227;-89
2022/11/18 14:35:51;;;;;;;9.57;7.70;;;;;;;;;;4947033;28;20211;-87
2022/11/18 14:38:22;;;;;;;5.60;4.07;;;;;;;;;;4968344;28;20303;-89
2022/11/18 14:41:11;;;;;;;15.23;5.97;;;;;;;;;;4977222;28;20209;-87
2022/11/18 14:43:44;;;;;;;6.47;5.33;;;;;;;;;;4971662;28;20266;-88
2022/11/18 14:46:14;;;;;;;12.27;5.33;;;;;;;;;;4969084;28;20348;-89
2022/11/18 14:48:43;;;;;;;13.57;5.40;;;;;;;;;;4968609;28;20204;-88
2022/11/18 14:51:14;;;;;;;6.87;4.40;;;;;;;;;;4965870;28;20204;-90
2022/11/18 14:53:43;;;;;;;7.13;4.97;;;;;;;;;;4978976;28;20229;-89
2022/11/18 14:56:14;;;;;;;9.43;6.77;;;;;;;;;;4985370;28;20201;-90
2022/11/18 14:58:43;;;;;;;8.43;4.27;;;;;;;;;;4968350;28;20229;-89
2022/11/18 15:01:12;;;;;;;5.27;4.80;;;;;;;;;;4976973;28;20201;-87
2022/11/18 15:03:41;;;;;;;8.43;7.17;;;;;;;;;;4963910;28;20271;-87
2022/11/18 15:06:15;;;;;;;8.70;5.97;;;;;;;;;;4984066;28;20208;-88
2022/11/18 15:08:44;;;;;;;6.03;4.70;;;;;;;;;;4968335;28;20207;-88
2022/11/18 15:11:13;;;;;;;8.27;6.10;;;;;;;;;;4966386;28;20242;-87
2022/11/18 15:13:42;;;;;;;4.90;3.67;;;;;;;;;;4967723;28;20195;-88
2022/11/18 15:16:13;;;;;;;9.50;8.60;;;;;;;;;;4972141;28;20230;-92
2022/11/18 15:18:45;;;;;;;7.77;7.00;;;;;;;;;;4972621;28;20201;-87
2022/11/18 15:21:15;;;;;;;6.33;5.60;;;;;;;;;;4968375;28;20214;-89
2022/11/18 15:23:43;;;;;;;3.03;2.43;;;;;;;;;;4967110;28;20219;-86
2022/11/18 15:26:16;;;;;;;12.87;5.53;;;;;;;;;;4969324;28;20263;-88